createdAt,value
2023-04-27T00:06:14.676Z,64.5
2023-04-27T00:26:14.514Z,65.6
2023-04-27T00:46:14.646Z,66.5
2023-04-27T01:06:14.647Z,67.6
2023-04-27T01:26:14.661Z,67.8
2023-04-27T01:46:14.734Z,68.7
2023-04-27T02:06:14.694Z,70.1
2023-04-27T02:26:14.822Z,70.3
2023-04-27T02:46:14.842Z,71.1
2023-04-27T03:06:14.843Z,71.8
2023-04-27T03:26:14.900Z,72
2023-04-27T03:46:15.032Z,72.3
2023-04-27T04:06:14.938Z,71.9
2023-04-27T04:26:15.008Z,72.1
2023-04-27T04:46:14.961Z,71.4
2023-04-27T05:06:15.110Z,71
2023-04-27T05:26:15.155Z,68.8
2023-04-27T05:46:15.272Z,66.9
2023-04-27T06:06:15.251Z,64
2023-04-27T06:26:15.240Z,63.8
2023-04-27T06:46:15.499Z,61.4
2023-04-27T07:06:15.280Z,58.9
2023-04-27T07:26:15.397Z,56.8
2023-04-27T07:46:15.345Z,55.2
2023-04-27T08:06:16.147Z,50.9
2023-04-27T08:26:15.495Z,48.3
2023-04-27T08:46:15.423Z,46.5
2023-04-27T09:06:15.676Z,46.2
2023-04-27T09:26:15.606Z,42.8
2023-04-27T09:46:15.689Z,41.3
2023-04-27T10:06:15.672Z,37.8
2023-04-27T10:26:15.667Z,36.3
2023-04-27T10:46:16.036Z,35.1
2023-04-27T11:06:15.764Z,35
2023-04-27T11:26:15.797Z,31.8
2023-04-27T11:46:15.965Z,31.5
2023-04-27T12:06:28.030Z,32.8
2023-04-27T12:26:15.859Z,33.3
2023-04-27T12:46:15.957Z,33.9
2023-04-27T13:06:15.990Z,31
2023-04-27T13:26:16.008Z,34.3
2023-04-27T13:46:16.043Z,28
2023-04-27T14:06:16.062Z,29.3
2023-04-27T15:26:16.036Z,34.9
2023-04-27T15:46:16.290Z,36
2023-04-27T16:06:16.215Z,37.9
2023-04-27T16:26:16.470Z,39.4
2023-04-27T16:46:16.343Z,39.2
2023-04-27T17:06:16.209Z,39.4
2023-04-27T17:26:16.292Z,40.6
2023-04-27T17:46:16.309Z,42.1
2023-04-27T18:06:16.418Z,45.3
2023-04-27T18:26:16.317Z,48.1
2023-04-27T18:46:16.495Z,52.6
2023-04-27T19:06:16.655Z,53.9
2023-04-27T19:26:16.551Z,57.9
2023-04-27T19:46:16.647Z,60.7
2023-04-27T20:06:16.627Z,54.5
2023-04-27T20:26:16.683Z,54.9
2023-04-27T20:46:18.672Z,55.9
2023-04-27T21:06:16.672Z,56.8
2023-04-27T21:26:16.698Z,57.1
2023-04-27T21:46:16.884Z,57.2
2023-04-27T22:06:16.782Z,57.3
2023-04-27T22:26:16.722Z,57.9
2023-04-27T22:46:16.839Z,58.6
2023-04-27T23:06:16.989Z,58.6
2023-04-27T23:26:16.903Z,59.2
2023-04-27T23:46:17.020Z,59
